Time;durP1;ratioP1;P1;durP2;ratioP2;P2;SDS_P1;SDS_P2;PMS_P1;PMS_P2;Temp;Humidity;BMP_temperature;BMP_pressure;BME280_temperature;BME280_humidity;BME280_pressure;Samples;Min_cycle;Max_cycle;Signal;HPM_P1;HPM_P2
2021/03/25 00:00:26;;;;;;;5.23;4.27;;;;;;;3.10;53.10;99662.34;5035997;28;20069;-76
2021/03/25 00:02:53;;;;;;;6.63;4.72;;;;;;;3.40;53.80;99707.72;5034779;28;20436;-77
2021/03/25 00:05:21;;;;;;;6.53;4.33;;;;;;;3.45;53.73;99724.66;5036089;28;20132;-76
2021/03/25 00:07:47;;;;;;;6.27;4.47;;;;;;;3.24;53.91;99682.09;5035919;28;20037;-77
2021/03/25 00:10:17;;;;;;;7.07;4.10;;;;;;;3.46;53.95;99715.88;5035729;28;20021;-77
2021/03/25 00:12:43;;;;;;;5.13;4.30;;;;;;;3.21;53.99;99660.63;5035932;28;20116;-76
2021/03/25 00:15:09;;;;;;;4.73;4.03;;;;;;;3.55;53.95;99713.44;5034284;28;20120;-77
2021/03/25 00:17:34;;;;;;;5.53;4.33;;;;;;;3.28;54.00;99673.03;5034558;28;20029;-76
2021/03/25 00:20:00;;;;;;;5.77;4.50;;;;;;;3.13;53.58;99635.19;5035371;28;20026;-76
2021/03/25 00:22:26;;;;;;;6.00;3.87;;;;;;;3.64;53.77;99710.88;5035684;28;20061;-77
2021/03/25 00:24:51;;;;;;;5.83;3.90;;;;;;;3.21;53.60;99642.38;5035446;28;20026;-77
2021/03/25 00:27:16;;;;;;;6.70;3.73;;;;;;;3.31;53.63;99664.97;5034475;28;20041;-78
2021/03/25 00:29:42;;;;;;;7.37;4.67;;;;;;;3.34;53.56;99661.25;5034704;28;20104;-76
2021/03/25 00:32:08;;;;;;;7.30;4.67;;;;;;;3.76;53.79;99719.47;5035158;28;20065;-76
2021/03/25 00:34:34;;;;;;;6.23;4.30;;;;;;;3.55;53.66;99705.59;5034581;28;20435;-76
2021/03/25 00:37:00;;;;;;;5.67;4.27;;;;;;;3.69;53.37;99721.75;5034188;28;20083;-77
2021/03/25 00:39:25;;;;;;;7.87;5.10;;;;;;;3.61;53.59;99698.09;5035222;28;20036;-77
2021/03/25 00:41:51;;;;;;;8.13;5.33;;;;;;;3.22;53.84;99647.47;5035806;28;20026;-78
2021/03/25 00:44:16;;;;;;;8.60;6.03;;;;;;;3.72;54.01;99734.59;5035845;28;20053;-78
2021/03/25 00:46:42;;;;;;;8.30;6.00;;;;;;;3.50;53.87;99698.16;5035597;28;20040;-76
2021/03/25 00:49:08;;;;;;;9.33;6.20;;;;;;;3.67;53.98;99717.63;5035001;28;20052;-77
2021/03/25 00:51:35;;;;;;;8.03;5.83;;;;;;;3.62;54.59;99720.63;5035121;28;20028;-77
2021/03/25 00:54:01;;;;;;;8.07;6.17;;;;;;;3.51;54.52;99712.88;5035007;28;20025;-77
2021/03/25 00:56:26;;;;;;;9.43;6.37;;;;;;;3.12;54.31;99642.19;5034074;28;20071;-77
2021/03/25 00:58:52;;;;;;;8.20;5.83;;;;;;;2.86;54.86;99604.38;5034945;28;20066;-77
2021/03/25 01:01:17;;;;;;;8.57;6.03;;;;;;;2.90;55.19;99654.50;5035011;28;20428;-76
2021/03/25 01:03:43;;;;;;;8.63;6.63;;;;;;;3.34;54.64;99711.66;5034948;28;20033;-76
2021/03/25 01:06:08;;;;;;;9.00;6.50;;;;;;;3.36;54.49;99714.16;5034738;28;20148;-76
2021/03/25 01:08:35;;;;;;;10.17;6.70;;;;;;;3.28;54.97;99706.13;5034933;28;20076;-76
2021/03/25 01:11:06;;;;;;;9.27;7.00;;;;;;;3.35;55.07;99710.72;5034653;28;20049;-76
2021/03/25 01:13:52;;;;;;;7.85;6.15;;;;;;;3.23;55.36;99714.34;5034896;28;20021;-77
2021/03/25 01:16:24;;;;;;;8.67;6.13;;;;;;;3.27;55.22;99710.53;5034785;28;20025;-76
2021/03/25 01:18:49;;;;;;;7.70;6.18;;;;;;;3.10;55.10;99690.22;5033639;28;20033;-77
2021/03/25 01:21:15;;;;;;;8.87;6.33;;;;;;;3.06;55.21;99681.00;5034787;28;20401;-76
2021/03/25 01:23:40;;;;;;;8.50;6.80;;;;;;;2.98;55.32;99660.78;5035284;28;20033;-76
2021/03/25 01:26:05;;;;;;;8.97;6.60;;;;;;;3.06;55.44;99678.41;5034071;28;20040;-76
2021/03/25 01:28:31;;;;;;;8.33;6.30;;;;;;;3.27;55.48;99709.69;5033678;28;20029;-76
2021/03/25 01:30:56;;;;;;;9.40;6.80;;;;;;;3.12;55.90;99702.19;5034567;28;20029;-76
2021/03/25 01:33:22;;;;;;;7.30;5.80;;;;;;;3.18;55.98;99698.25;5034501;28;20029;-76
2021/03/25 01:35:48;;;;;;;9.43;6.47;;;;;;;3.12;55.97;99704.81;5033501;28;20095;-76
2021/03/25 01:38:16;;;;;;;8.97;6.87;;;;;;;3.11;56.18;99703.16;5034466;28;20037;-76
2021/03/25 01:40:45;;;;;;;8.17;6.70;;;;;;;3.07;56.24;99714.78;5034461;28;20021;-77
2021/03/25 01:43:10;;;;;;;8.93;7.03;;;;;;;2.95;56.31;99704.50;5034438;28;20037;-77
2021/03/25 01:45:37;;;;;;;10.07;6.47;;;;;;;2.85;56.40;99699.22;5033405;28;20116;-76
2021/03/25 01:48:03;;;;;;;8.80;6.77;;;;;;;2.91;56.69;99714.34;5033126;28;20444;-76
2021/03/25 01:50:29;;;;;;;9.80;6.70;;;;;;;2.50;56.51;99642.13;5034568;28;20056;-76
2021/03/25 01:53:33;;;;;;;9.97;6.77;;;;;;;2.87;56.77;99710.34;5033318;28;20025;-77
2021/03/25 01:56:20;;;;;;;10.17;6.70;;;;;;;2.90;56.31;99717.09;5034403;28;20117;-76
2021/03/25 01:59:04;;;;;;;11.17;6.90;;;;;;;2.90;56.53;99719.69;5034393;28;20547;-76
2021/03/25 02:01:43;;;;;;;9.53;6.63;;;;;;;2.59;56.58;99664.00;5034371;28;20112;-76
2021/03/25 02:04:11;;;;;;;9.73;6.47;;;;;;;2.94;56.32;99727.16;5034682;28;20417;-77
2021/03/25 02:06:59;;;;;;;9.77;6.23;;;;;;;2.95;55.79;99727.97;5033924;28;20029;-77
2021/03/25 02:09:47;;;;;;;12.03;7.30;;;;;;;2.91;55.89;99732.59;5034638;28;20053;-76
2021/03/25 02:12:18;;;;;;;12.17;7.23;;;;;;;2.83;56.22;99730.63;5033142;28;20029;-77
2021/03/25 02:15:09;;;;;;;11.37;7.13;;;;;;;2.19;56.01;99635.91;5034309;28;20036;-76
2021/03/25 02:17:44;;;;;;;8.70;6.17;;;;;;;2.75;56.16;99735.63;5033080;28;20055;-77
2021/03/25 02:20:39;;;;;;;8.10;7.00;;;;;;;2.85;55.79;99722.69;5034124;28;20037;-77
2021/03/25 02:23:29;;;;;;;9.47;6.10;;;;;;;2.77;55.65;99727.69;5034316;28;20025;-76
2021/03/25 02:26:00;;;;;;;7.83;5.37;;;;;;;2.80;55.15;99725.66;5033926;28;20026;-77
2021/03/25 02:28:49;;;;;;;7.67;5.37;;;;;;;2.72;55.55;99722.00;5033037;28;20029;-76
2021/03/25 02:31:22;;;;;;;7.50;5.47;;;;;;;2.69;55.39;99730.09;5033984;28;20021;-76
2021/03/25 02:33:52;;;;;;;8.90;6.47;;;;;;;2.42;55.91;99697.47;5034160;28;20439;-76
2021/03/25 02:36:22;;;;;;;8.40;5.80;;;;;;;2.61;55.41;99732.47;5033179;28;20026;-76
2021/03/25 02:38:59;;;;;;;7.20;5.20;;;;;;;2.60;55.58;99730.81;5037628;28;20040;-76
2021/03/25 02:41:30;;;;;;;6.70;5.37;;;;;;;2.52;55.57;99723.63;5037664;28;20030;-77
2021/03/25 02:44:11;;;;;;;10.70;7.38;;;;;;;2.49;55.39;99708.22;5037425;28;20025;-76
2021/03/25 02:46:42;;;;;;;8.00;5.30;;;;;;;2.62;55.67;99741.94;5019984;28;20403;-77
2021/03/25 02:49:12;;;;;;;7.13;5.13;;;;;;;2.48;55.39;99694.38;5037253;28;20057;-76
2021/03/25 02:51:48;;;;;;;6.90;4.87;;;;;;;2.63;55.06;99735.78;5037331;28;20028;-76
2021/03/25 02:54:13;;;;;;;5.57;4.87;;;;;;;2.59;55.46;99744.81;5037148;28;20103;-77
2021/03/25 02:56:46;;;;;;;6.73;5.60;;;;;;;2.65;55.59;99741.72;5037745;28;20431;-76
2021/03/25 02:59:24;;;;;;;5.83;5.10;;;;;;;2.37;55.70;99723.06;5037314;28;20043;-76
2021/03/25 03:01:55;;;;;;;6.73;4.43;;;;;;;2.46;55.62;99753.59;5037030;28;20037;-76
2021/03/25 03:04:29;;;;;;;6.50;5.30;;;;;;;2.44;55.80;99737.25;5037346;28;20091;-77
2021/03/25 03:07:03;;;;;;;7.93;5.80;;;;;;;2.55;55.99;99754.66;5037084;28;20025;-76
2021/03/25 03:09:37;;;;;;;7.00;4.63;;;;;;;2.52;56.06;99744.47;5037838;28;20116;-76
2021/03/25 03:12:09;;;;;;;7.57;4.87;;;;;;;2.43;56.05;99730.38;5036552;28;20087;-76
2021/03/25 03:14:37;;;;;;;;;;;;;;;2.38;55.91;99752.53;5036877;28;20031;-76
2021/03/25 03:17:15;;;;;;;7.27;5.00;;;;;;;2.41;55.81;99750.53;5036863;28;19909;-76
2021/03/25 03:19:49;;;;;;;6.17;4.73;;;;;;;2.23;55.66;99702.47;5037120;28;20025;-77
2021/03/25 03:22:15;;;;;;;6.63;4.70;;;;;;;2.58;56.03;99754.41;5036900;28;20029;-76
2021/03/25 03:24:40;;;;;;;6.30;5.47;;;;;;;2.19;55.70;99694.03;5036633;28;20032;-76
2021/03/25 03:27:17;;;;;;;7.47;4.97;;;;;;;2.70;55.53;99763.03;5035486;28;20079;-76
2021/03/25 03:29:44;;;;;;;13.67;8.67;;;;;;;2.54;55.90;99745.16;5036835;28;20113;-76
2021/03/25 03:32:16;;;;;;;9.33;6.67;;;;;;;2.62;55.85;99765.41;5036691;28;20032;-77
2021/03/25 03:34:44;;;;;;;6.57;4.97;;;;;;;2.66;56.25;99778.06;5035691;28;20048;-76
2021/03/25 03:37:17;;;;;;;6.13;5.03;;;;;;;2.63;56.16;99782.72;5036294;28;20034;-76
2021/03/25 03:39:43;;;;;;;5.80;4.50;;;;;;;2.62;55.74;99760.19;5036602;28;20395;-76
2021/03/25 03:42:15;;;;;;;6.77;4.90;;;;;;;2.71;55.95;99775.09;5036302;28;20026;-76
2021/03/25 03:44:45;;;;;;;7.07;5.03;;;;;;;2.67;56.18;99773.69;5035376;28;20029;-77
2021/03/25 03:47:13;;;;;;;5.73;4.93;;;;;;;2.73;55.89;99781.03;5035030;28;20040;-76
2021/03/25 03:49:53;;;;;;;7.53;5.00;;;;;;;2.59;56.39;99781.28;5035586;28;20329;-76
2021/03/25 03:52:24;;;;;;;6.47;5.17;;;;;;;2.58;56.38;99777.84;5036335;28;20435;-77
2021/03/25 03:54:52;;;;;;;7.78;5.18;;;;;;;2.52;55.96;99760.09;5036175;28;20034;-76
2021/03/25 03:57:33;;;;;;;5.63;5.03;;;;;;;2.72;56.24;99784.59;5035126;28;20040;-76
2021/03/25 04:00:13;;;;;;;7.03;5.43;;;;;;;2.67;56.69;99789.34;5036019;28;20033;-76
2021/03/25 04:02:52;;;;;;;6.87;5.80;;;;;;;2.30;56.73;99715.84;5035895;28;20025;-76
2021/03/25 04:05:40;;;;;;;9.57;6.43;;;;;;;2.49;56.59;99760.34;5034962;28;20025;-76
2021/03/25 04:08:15;;;;;;;11.63;8.57;;;;;;;2.68;56.18;99788.38;5035859;28;20033;-76
2021/03/25 04:10:45;;;;;;;12.87;6.80;;;;;;;2.37;56.62;99754.31;5034855;28;20079;-76
2021/03/25 04:13:15;;;;;;;11.70;7.33;;;;;;;2.28;56.99;99735.97;5035755;28;20164;-76
2021/03/25 04:15:48;;;;;;;21.07;10.77;;;;;;;2.69;56.84;99805.69;5034902;28;20573;-76
2021/03/25 04:18:33;;;;;;;11.53;8.20;;;;;;;2.38;57.93;99768.19;5036551;28;20064;-76
2021/03/25 04:21:05;;;;;;;12.43;8.43;;;;;;;2.08;57.19;99707.09;5035551;28;20057;-76
2021/03/25 04:23:32;;;;;;;12.17;9.47;;;;;;;2.51;57.41;99814.00;5035515;28;20029;-77
2021/03/25 04:26:11;;;;;;;11.30;8.47;;;;;;;2.26;58.30;99762.16;5034398;28;20343;-76
2021/03/25 04:28:42;;;;;;;11.43;8.27;;;;;;;2.75;57.28;99818.22;5035692;28;20030;-76
2021/03/25 04:31:08;;;;;;;8.85;6.50;;;;;;;2.75;57.62;99826.06;5034307;28;20031;-76
2021/03/25 04:33:36;;;;;;;11.50;7.47;;;;;;;2.60;57.92;99790.78;5035476;28;20025;-76
2021/03/25 04:36:06;;;;;;;9.53;7.30;;;;;;;2.72;58.17;99832.34;5035191;28;20079;-76
2021/03/25 04:38:37;;;;;;;9.33;6.87;;;;;;;2.67;58.20;99834.47;5035259;28;20029;-76
2021/03/25 04:41:03;;;;;;;9.33;6.93;;;;;;;2.51;59.13;99834.03;5034157;28;20026;-76
2021/03/25 04:43:28;;;;;;;8.63;7.53;;;;;;;2.59;59.00;99841.25;5035388;28;20340;-76
2021/03/25 04:46:02;;;;;;;9.23;6.23;;;;;;;2.45;60.34;99829.28;5035364;28;20101;-76
2021/03/25 04:48:33;;;;;;;10.00;6.97;;;;;;;2.55;58.90;99836.28;5035358;28;20348;-76
2021/03/25 04:51:05;;;;;;;11.52;7.32;;;;;;;2.63;59.35;99848.69;5034984;28;20025;-76
2021/03/25 04:53:37;;;;;;;9.32;6.07;;;;;;;2.64;59.35;99845.16;5035299;28;20033;-77
2021/03/25 04:56:09;;;;;;;9.97;7.57;;;;;;;2.42;59.23;99806.06;5035285;28;20029;-76
2021/03/25 04:58:42;;;;;;;10.43;7.60;;;;;;;2.71;59.21;99848.09;5035349;28;20037;-76
2021/03/25 05:01:24;;;;;;;15.63;10.63;;;;;;;2.45;59.61;99805.84;5032975;28;20033;-76
2021/03/25 05:03:56;;;;;;;11.37;8.07;;;;;;;2.20;60.08;99789.47;5033971;28;20163;-76
2021/03/25 05:06:25;;;;;;;13.93;8.50;;;;;;;2.67;59.46;99842.31;5035001;28;20030;-76
2021/03/25 05:08:55;;;;;;;18.93;11.83;;;;;;;2.78;59.00;99862.31;5035314;28;20326;-77
2021/03/25 05:11:23;;;;;;;21.80;12.10;;;;;;;2.77;59.31;99855.44;5035180;28;20033;-76
2021/03/25 05:13:51;;;;;;;19.47;11.20;;;;;;;2.82;59.32;99841.09;5034767;28;20482;-76
2021/03/25 05:16:35;;;;;;;29.00;13.97;;;;;;;3.02;58.88;99873.44;5034615;28;20413;-76
2021/03/25 05:19:16;;;;;;;61.77;22.47;;;;;;;2.99;58.76;99868.47;5034669;28;20022;-76
2021/03/25 05:22:01;;;;;;;55.97;26.23;;;;;;;3.07;58.25;99862.66;5033574;28;20026;-76
2021/03/25 05:24:53;;;;;;;19.10;11.30;;;;;;;3.06;58.48;99874.03;5034081;28;20088;-76
2021/03/25 05:27:24;;;;;;;11.57;8.63;;;;;;;3.00;58.13;99871.91;5034554;28;20421;-76
2021/03/25 05:29:54;;;;;;;17.33;10.77;;;;;;;2.90;58.00;99868.34;5033631;28;20459;-76
2021/03/25 05:32:24;;;;;;;13.93;9.70;;;;;;;2.44;57.31;99775.50;5033399;28;20272;-76
2021/03/25 05:34:53;;;;;;;10.10;7.43;;;;;;;2.76;56.73;99845.97;5033511;28;20047;-76
2021/03/25 05:37:20;;;;;;;11.07;7.53;;;;;;;3.03;56.70;99879.50;5034466;28;20040;-76
2021/03/25 05:39:45;;;;;;;12.53;8.70;;;;;;;3.00;56.26;99875.34;5034517;28;20057;-76
2021/03/25 05:42:25;;;;;;;11.03;8.27;;;;;;;3.08;54.95;99879.94;5034401;28;20111;-77
2021/03/25 05:45:08;;;;;;;13.37;8.93;;;;;;;3.19;54.86;99893.78;5034644;28;20103;-77
2021/03/25 05:47:46;;;;;;;14.73;8.43;;;;;;;3.37;55.25;99895.88;5035213;28;20021;-76
2021/03/25 05:50:32;;;;;;;18.73;11.37;;;;;;;3.47;55.13;99902.00;5035336;28;20029;-76
2021/03/25 05:52:57;;;;;;;32.67;16.30;;;;;;;3.54;55.12;99905.78;5034097;28;20042;-76
2021/03/25 05:55:48;;;;;;;16.93;10.80;;;;;;;3.49;54.61;99898.34;5034291;28;20478;-76
2021/03/25 05:58:52;;;;;;;15.20;10.23;;;;;;;3.38;54.41;99910.59;5033177;28;20037;-77
2021/03/25 06:01:30;;;;;;;17.67;11.83;;;;;;;3.22;54.95;99904.94;5029297;28;20059;-76
2021/03/25 06:04:07;;;;;;;25.93;14.97;;;;;;;3.21;54.83;99919.75;5034438;28;20458;-76
2021/03/25 06:06:45;;;;;;;21.47;12.90;;;;;;;2.96;55.42;99894.75;5034428;28;20062;-77
2021/03/25 06:09:26;;;;;;;19.27;12.23;;;;;;;3.19;55.39;99913.84;5034257;28;20029;-76
2021/03/25 06:12:10;;;;;;;14.30;10.30;;;;;;;3.35;55.58;99922.09;5035702;28;20100;-77
2021/03/25 06:14:57;;;;;;;16.57;11.33;;;;;;;3.50;54.13;99935.69;5038163;28;20203;-76
2021/03/25 06:17:48;;;;;;;15.63;9.97;;;;;;;3.39;55.02;99920.91;5038312;28;20147;-76
2021/03/25 06:20:26;;;;;;;18.00;10.90;;;;;;;3.61;54.78;99930.44;5037794;28;20037;-76
2021/03/25 06:22:54;;;;;;;19.33;12.70;;;;;;;3.73;54.76;99942.53;5037998;28;20025;-76
2021/03/25 06:25:37;;;;;;;21.93;13.57;;;;;;;3.82;54.36;99941.78;5037638;28;20021;-76
2021/03/25 06:28:26;;;;;;;17.83;11.87;;;;;;;3.79;54.07;99943.81;5037876;28;20041;-76
2021/03/25 06:31:25;;;;;;;16.47;10.77;;;;;;;3.82;53.12;99947.00;5038252;28;20135;-77
2021/03/25 06:34:03;;;;;;;17.27;12.90;;;;;;;3.48;53.06;99922.78;5037816;28;20033;-77
2021/03/25 06:36:47;;;;;;;14.63;9.60;;;;;;;3.01;52.98;99863.13;5037795;28;20037;-77
2021/03/25 06:39:26;;;;;;;14.67;9.17;;;;;;;3.63;52.85;99943.38;5037619;28;20029;-77
2021/03/25 06:42:09;;;;;;;18.80;11.50;;;;;;;3.64;53.41;99927.59;5037588;28;20021;-76
2021/03/25 06:44:45;;;;;;;20.33;13.70;;;;;;;3.62;52.98;99913.00;5035591;28;20138;-76
2021/03/25 06:47:24;;;;;;;14.43;10.67;;;;;;;3.86;52.95;99944.16;5026454;28;20034;-77
2021/03/25 06:49:54;;;;;;;10.30;7.40;;;;;;;3.46;52.95;99880.31;5018375;28;20151;-77
2021/03/25 06:52:37;;;;;;;17.07;11.37;;;;;;;3.87;52.16;99951.03;5022186;23;20111;-76
2021/03/25 06:55:19;;;;;;;12.73;9.10;;;;;;;3.78;52.51;99950.00;5024443;28;20109;-76
2021/03/25 06:57:56;;;;;;;12.83;9.17;;;;;;;3.86;52.44;99958.03;5012881;28;20084;-76
2021/03/25 07:00:24;;;;;;;12.43;8.97;;;;;;;3.53;52.73;99900.69;5015204;28;20045;-76
2021/03/25 07:02:51;;;;;;;14.30;8.67;;;;;;;3.52;52.25;99894.66;5016682;28;20113;-76
2021/03/25 07:05:45;;;;;;;14.17;8.63;;;;;;;4.04;52.19;99953.91;5017048;28;20026;-75
2021/03/25 07:08:14;;;;;;;12.20;8.77;;;;;;;4.08;52.02;99960.53;5016415;28;20049;-77
2021/03/25 07:10:40;;;;;;;11.80;8.17;;;;;;;3.76;51.83;99891.84;5016760;28;20032;-76
2021/03/25 07:13:07;;;;;;;14.53;8.80;;;;;;;4.21;51.93;99952.53;5014207;28;20037;-76
2021/03/25 07:15:36;;;;;;;14.50;8.70;;;;;;;4.21;52.07;99910.69;5013158;28;20045;-78
2021/03/25 07:18:19;;;;;;;14.83;8.93;;;;;;;4.75;51.29;99962.75;5015106;28;20029;-77
2021/03/25 07:20:45;;;;;;;11.93;8.60;;;;;;;4.71;51.16;99943.06;5011809;28;20026;-76
2021/03/25 07:23:14;;;;;;;11.93;8.67;;;;;;;4.97;51.33;99960.94;5015560;28;20137;-77
2021/03/25 07:25:45;;;;;;;12.67;8.13;;;;;;;5.06;50.30;99963.56;5013065;28;20034;-77
2021/03/25 07:28:15;;;;;;;9.88;6.70;;;;;;;4.77;50.37;99924.22;5025718;28;20022;-77
2021/03/25 07:30:47;;;;;;;13.80;8.30;;;;;;;5.01;49.70;99936.16;5016253;28;20026;-76
2021/03/25 07:33:15;;;;;;;;;;;;;;;4.93;49.31;99964.75;5066389;22;20053;-78
2021/03/25 07:35:45;;;;;;;9.93;6.90;;;;;;;4.74;50.16;99926.28;5036632;28;19966;-77
2021/03/25 07:38:30;;;;;;;12.17;7.97;;;;;;;5.13;49.38;99968.28;5035719;28;20432;-77
2021/03/25 07:41:23;;;;;;;12.70;8.23;;;;;;;5.14;48.32;99977.78;5036783;28;20460;-76
2021/03/25 07:44:03;;;;;;;12.27;7.90;;;;;;;5.35;49.24;99979.41;5033633;28;20045;-80
2021/03/25 07:46:31;;;;;;;15.40;9.20;;;;;;;5.25;48.71;99970.69;5028077;28;20022;-77
2021/03/25 07:49:06;;;;;;;13.57;8.40;;;;;;;5.19;49.10;99973.81;5035189;28;20079;-77
2021/03/25 07:51:48;;;;;;;10.77;7.30;;;;;;;5.28;48.36;99980.06;5032278;28;20073;-76
2021/03/25 07:54:23;;;;;;;;;;;;;;;5.39;48.79;99977.34;5035293;28;20090;-76
2021/03/25 07:57:03;;;;;;;11.60;7.10;;;;;;;5.50;48.45;99972.00;5034951;28;19996;-77
2021/03/25 07:59:47;;;;;;;9.83;7.10;;;;;;;5.46;48.19;99970.59;5029759;28;20079;-77
2021/03/25 08:02:26;;;;;;;8.77;5.70;;;;;;;5.50;48.39;99981.63;5033736;28;20149;-76
2021/03/25 08:04:53;;;;;;;7.63;5.53;;;;;;;5.28;48.14;99930.31;5034305;28;20033;-77
2021/03/25 08:07:20;;;;;;;8.30;5.10;;;;;;;5.63;47.93;99982.22;5033711;28;20032;-77
2021/03/25 08:09:55;;;;;;;6.60;5.27;;;;;;;5.60;46.47;99988.53;5030375;28;20030;-77
2021/03/25 08:12:31;;;;;;;10.00;5.60;;;;;;;5.75;47.65;99987.19;5032008;28;20116;-79
2021/03/25 08:15:26;;;;;;;9.20;6.00;;;;;;;5.95;47.35;99985.47;5033397;28;20033;-77
2021/03/25 08:18:00;;;;;;;9.10;4.97;;;;;;;5.51;47.24;99923.06;5034150;28;20054;-76
2021/03/25 08:20:35;;;;;;;6.60;4.50;;;;;;;5.86;47.36;99998.50;5031300;28;20040;-79
2021/03/25 08:23:39;;;;;;;5.33;4.70;;;;;;;5.77;45.99;100008.00;5034883;28;20091;-77
2021/03/25 08:26:16;;;;;;;5.90;3.90;;;;;;;5.72;46.62;100002.34;5015416;28;20043;-76
2021/03/25 08:29:01;;;;;;;4.73;4.13;;;;;;;5.75;47.08;99995.03;5028000;28;20035;-76
2021/03/25 08:31:42;;;;;;;5.13;4.53;;;;;;;5.61;47.16;99961.38;5033620;28;20388;-77
2021/03/25 08:34:19;;;;;;;6.70;4.77;;;;;;;5.90;46.66;99999.91;5028970;28;20049;-77
2021/03/25 08:36:54;;;;;;;8.10;4.23;;;;;;;5.87;47.03;100003.59;5033328;28;20030;-78
2021/03/25 08:39:50;;;;;;;5.47;4.77;;;;;;;5.91;46.32;100014.69;5034143;28;20102;-78
2021/03/25 08:42:29;;;;;;;7.03;4.90;;;;;;;5.78;45.53;99977.41;5034039;28;20037;-76
2021/03/25 08:45:32;;;;;;;7.83;5.50;;;;;;;6.05;46.25;100003.81;5032349;28;20091;-77
2021/03/25 08:48:15;;;;;;;9.57;5.53;;;;;;;6.09;47.03;99999.97;5032717;28;20043;-77
2021/03/25 08:51:00;;;;;;;8.07;5.33;;;;;;;6.22;45.70;100002.28;5038099;28;20029;-77
2021/03/25 08:54:04;;;;;;;8.33;5.07;;;;;;;5.37;45.89;99891.06;5032848;28;20040;-78
2021/03/25 08:56:48;;;;;;;8.73;5.77;;;;;;;6.15;45.96;99999.41;5006078;28;20049;-76
2021/03/25 08:59:13;;;;;;;11.50;8.33;;;;;;;6.09;46.87;99989.47;5033591;28;20424;-78
2021/03/25 09:01:45;;;;;;;7.60;5.70;;;;;;;6.21;46.39;100000.63;5034699;28;20036;-78
2021/03/25 09:04:14;;;;;;;7.80;6.03;;;;;;;5.95;46.81;99943.53;5032507;28;20348;-76
2021/03/25 09:06:42;;;;;;;9.00;5.57;;;;;;;6.10;46.56;99957.03;5033061;28;20048;-81
2021/03/25 09:09:33;;;;;;;9.40;5.20;;;;;;;6.45;46.31;99998.41;5032832;28;20117;-76
2021/03/25 09:12:01;;;;;;;8.07;5.60;;;;;;;6.42;45.98;99990.81;5030608;28;20161;-77
2021/03/25 09:14:29;;;;;;;9.53;6.00;;;;;;;6.42;46.65;99982.13;5033469;28;20041;-77
2021/03/25 09:17:06;;;;;;;7.43;5.80;;;;;;;6.56;46.40;99973.81;5031916;28;20383;-76
2021/03/25 09:19:42;;;;;;;6.80;5.30;;;;;;;6.84;45.36;99986.06;5034205;28;20428;-77
2021/03/25 09:22:09;;;;;;;7.43;5.50;;;;;;;7.02;45.84;99988.75;5034091;28;20486;-78
2021/03/25 09:24:35;;;;;;;6.83;5.47;;;;;;;7.04;44.98;99988.59;5030627;28;20025;-76
2021/03/25 09:27:04;;;;;;;10.87;5.97;;;;;;;7.09;45.00;99996.88;5032004;28;20462;-76
2021/03/25 09:29:34;;;;;;;7.40;5.50;;;;;;;7.00;44.45;99990.69;5031277;28;20049;-75
2021/03/25 09:31:59;;;;;;;8.03;6.23;;;;;;;6.95;44.50;99999.00;5031934;28;20481;-78
2021/03/25 09:34:25;;;;;;;7.50;5.60;;;;;;;6.83;44.83;99984.41;5030882;28;20053;-77
2021/03/25 09:36:58;;;;;;;8.37;5.60;;;;;;;6.84;44.92;99995.72;5032141;28;20056;-75
2021/03/25 09:39:26;;;;;;;6.90;6.00;;;;;;;6.65;45.52;99980.81;5031467;28;20030;-76
2021/03/25 09:41:53;;;;;;;10.43;6.60;;;;;;;6.81;45.36;99991.59;5033218;28;20026;-77
2021/03/25 09:44:26;;;;;;;9.60;6.03;;;;;;;6.95;44.99;100000.78;5028906;28;20032;-77
2021/03/25 09:46:54;;;;;;;6.50;5.33;;;;;;;7.06;45.32;99984.03;5030618;28;20029;-77
2021/03/25 09:52:24;;;;;;;7.60;5.83;;;;;;;7.19;44.72;99985.34;5038334;28;20034;-90
2021/03/25 09:54:53;;;;;;;9.20;6.30;;;;;;;7.03;44.93;99944.94;5028358;28;20073;-77
2021/03/25 09:57:30;;;;;;;10.40;8.40;;;;;;;7.26;45.26;99983.78;5031885;28;20026;-84
2021/03/25 10:00:07;;;;;;;11.40;7.57;;;;;;;7.49;43.73;99986.88;5037898;28;20053;-83
2021/03/25 10:02:39;;;;;;;7.83;6.57;;;;;;;7.65;44.20;99973.91;5038005;28;20033;-86
2021/03/25 10:05:28;;;;;;;12.63;7.40;;;;;;;7.76;43.06;99975.50;5037741;28;20045;-77
2021/03/25 10:07:59;;;;;;;12.57;7.10;;;;;;;7.71;43.91;99971.66;5027899;28;20437;-81
2021/03/25 10:10:40;;;;;;;9.40;6.75;;;;;;;7.91;44.61;99973.16;5035279;28;20102;-90
2021/03/25 10:13:06;;;;;;;12.03;7.70;;;;;;;8.07;44.27;99978.56;5037298;28;20037;-87
2021/03/25 10:15:36;;;;;;;6.80;5.40;;;;;;;8.53;43.86;99966.97;5037974;28;20083;-90
2021/03/25 10:18:25;;;;;;;10.97;7.43;;;;;;;8.91;42.00;99967.53;5036913;28;20029;-82
2021/03/25 10:20:53;;;;;;;15.80;9.70;;;;;;;9.33;41.91;99969.38;5033917;28;20072;-85
2021/03/25 10:23:39;;;;;;;10.20;7.57;;;;;;;9.56;41.04;99967.81;5035440;28;20037;-77
2021/03/25 10:26:04;;;;;;;8.17;6.00;;;;;;;9.35;41.12;99970.88;5033739;28;20030;-76
2021/03/25 10:28:37;;;;;;;6.50;5.50;;;;;;;8.80;41.11;99871.22;5036236;28;20411;-77
2021/03/25 10:31:20;;;;;;;7.57;5.40;;;;;;;9.82;37.49;99952.72;5034850;28;20021;-77
2021/03/25 10:33:50;;;;;;;7.63;5.90;;;;;;;10.12;39.92;99959.16;5030260;28;20458;-78
2021/03/25 10:36:19;;;;;;;6.50;5.90;;;;;;;10.32;39.57;99954.41;5037454;28;20420;-77
2021/03/25 10:38:49;;;;;;;6.88;5.82;;;;;;;10.79;39.39;99956.34;5034527;28;20029;-79
2021/03/25 10:41:24;;;;;;;8.15;6.13;;;;;;;10.06;38.53;99858.75;5035336;28;20033;-78
2021/03/25 10:43:50;;;;;;;9.82;5.63;;;;;;;10.02;38.92;99923.38;5034381;28;20110;-86
2021/03/25 10:46:42;;;;;;;6.40;5.00;;;;;;;9.55;37.68;99873.88;5035452;28;20053;-84
2021/03/25 10:49:16;;;;;;;7.38;5.05;;;;;;;10.22;38.70;99947.66;5024872;28;20440;-76
2021/03/25 10:51:44;;;;;;;6.30;4.68;;;;;;;9.92;38.46;99881.34;5034342;28;20048;-88
2021/03/25 10:54:35;;;;;;;6.72;5.45;;;;;;;10.07;37.81;99929.00;5050478;28;20040;-76
2021/03/25 10:57:09;;;;;;;6.90;4.63;;;;;;;10.13;38.80;99937.06;5028895;28;20183;-75
2021/03/25 10:59:35;;;;;;;8.63;6.28;;;;;;;10.21;38.69;99938.09;5033148;28;20494;-75
2021/03/25 11:02:01;;;;;;;7.32;4.50;;;;;;;9.48;38.62;99855.28;5036922;28;20109;-77
2021/03/25 11:04:30;;;;;;;10.13;5.30;;;;;;;9.81;38.53;99945.78;5033825;28;20041;-76
2021/03/25 11:07:08;;;;;;;8.02;6.05;;;;;;;9.38;39.08;99933.66;5035213;28;20086;-76
2021/03/25 11:09:33;;;;;;;6.45;5.55;;;;;;;8.98;39.36;99938.78;5034957;28;20344;-75
2021/03/25 11:12:02;;;;;;;9.32;6.60;;;;;;;8.87;40.37;99950.41;5036929;28;20026;-76
2021/03/25 11:14:32;;;;;;;8.07;6.72;;;;;;;8.91;39.73;99951.72;5035674;28;20115;-76
2021/03/25 11:17:03;;;;;;;7.97;5.75;;;;;;;8.88;39.61;99934.44;5035684;28;20052;-76
2021/03/25 11:19:30;;;;;;;8.43;6.18;;;;;;;8.67;40.31;99907.69;5033972;28;20477;-86
2021/03/25 11:21:57;;;;;;;6.60;5.35;;;;;;;8.96;40.00;99948.66;5032717;28;20033;-76
2021/03/25 11:24:29;;;;;;;11.23;6.45;;;;;;;8.97;39.85;99923.97;5034165;28;20064;-76
2021/03/25 11:27:01;;;;;;;6.35;4.78;;;;;;;9.21;39.37;99937.22;5036781;28;20037;-87
2021/03/25 11:29:30;;;;;;;5.82;4.82;;;;;;;9.24;39.93;99936.91;5036678;28;20065;-76
2021/03/25 11:32:12;;;;;;;7.05;5.40;;;;;;;8.85;37.82;99876.81;5036504;28;20420;-76
2021/03/25 11:34:41;;;;;;;6.95;4.82;;;;;;;8.73;39.51;99864.09;5031388;28;20042;-76
2021/03/25 11:37:25;;;;;;;7.13;5.57;;;;;;;9.08;37.21;99927.16;5025565;28;20025;-76
2021/03/25 11:40:16;;;;;;;10.48;6.78;;;;;;;9.08;39.40;99921.06;5036303;28;20482;-76
2021/03/25 11:42:44;;;;;;;7.63;5.50;;;;;;;9.12;39.31;99930.28;5016576;28;20028;-76
2021/03/25 11:45:40;;;;;;;7.75;5.35;;;;;;;9.00;38.44;99935.00;5016445;28;20152;-81
2021/03/25 11:48:26;;;;;;;7.07;5.13;;;;;;;8.91;39.02;99930.66;5028480;28;20036;-77
2021/03/25 11:50:53;;;;;;;7.97;5.38;;;;;;;8.80;39.21;99923.03;5028089;28;20021;-76
2021/03/25 11:53:35;;;;;;;5.82;4.80;;;;;;;8.67;39.49;99918.22;5035833;28;20018;-76
2021/03/25 11:56:01;;;;;;;4.90;4.07;;;;;;;8.11;39.63;99855.50;5021165;28;20028;-78
2021/03/25 11:58:27;;;;;;;6.43;4.68;;;;;;;8.08;40.57;99854.00;5035929;28;20326;-77
2021/03/25 12:01:04;;;;;;;9.90;6.50;;;;;;;8.47;40.00;99919.41;5036003;28;20036;-76
2021/03/25 12:03:34;;;;;;;6.68;5.30;;;;;;;8.38;39.75;99909.81;5034821;28;20036;-76
2021/03/25 12:06:00;;;;;;;7.88;5.35;;;;;;;8.04;40.50;99870.25;5035313;28;20562;-76
2021/03/25 12:08:32;;;;;;;11.27;7.20;;;;;;;8.45;39.93;99937.16;5030840;28;20035;-78
2021/03/25 12:11:09;;;;;;;;;;;;;;;8.39;40.00;99922.00;5033663;28;20028;-86
2021/03/25 12:13:36;;;;;;;6.30;4.60;;;;;;;8.31;40.69;99927.16;5034179;28;19919;-76